Genius — 2CPA7 — position and weather

sailwx.info

Track history (hours):
 
Tides and Currents Weather Stations Pressure Air Temp Water Temp Dewpoint Dewpoint Depression Visibility Wind Speed Wind Dir Waves Ship Positions

Genius

Last reported at 2015-Sep-04 16:33 UTC. Time now 2015-Sep-05 16:20 UTC.
Position S 16°27' E 117°34'.

Length 288 m; draft 17.7 m.

Type: Cargo ship. MMSI: 235074615.

Date/timePositionNaut miles runAvg speedWind from/ knotsBaromVisibWave heightAir tempDewpointWater temp
2015-Sep-04 16:33S 16°27' E 117°34'1410.5
2015-Sep-04 15:12S 16°40' E 117°38'810.8
2015-Sep-04 14:27S 16°48' E 117°40'4710.7
2015-Sep-04 10:05S 17°34' E 117°52'14810.9
2015-Sep-03 20:32S 19°58' E 118°27'23 2.5
2015-Sep-03 11:12S 20°20' E 118°35'0 0.1
2015-Sep-03 10:12S 20°20' E 118°35'0 0.0
2015-Sep-03 09:06S 20°20' E 118°35'0 0.0
2015-Sep-03 08:24S 20°20' E 118°35'0 0.0
2015-Sep-02 10:30S 20°20' E 118°35'0 0.0
2015-Sep-02 08:06S 20°20' E 118°35'0 0.0
2015-Sep-02 07:10S 20°20' E 118°35'0 0.2
2015-Sep-02 06:32S 20°20' E 118°35'37 4.6
2015-Sep-01 22:30S 19°44' E 118°25'8 8.3
2015-Sep-01 21:32S 19°36' E 118°23'9 8.6
2015-Sep-01 20:31S 19°28' E 118°21'8 8.5
2015-Sep-01 19:33S 19°20' E 118°19'18 9.0
2015-Sep-01 17:30S 19°02' E 118°14'21 9.7
2015-Sep-01 15:21S 18°41' E 118°10'2010.4
2015-Sep-01 13:26S 18°22' E 118°04'  
2015-Aug-29 13:12S 07°47' E 115°25'6 8.1
2015-Aug-29 12:31S 07°43' E 115°21'186 8.8
2015-Aug-28 15:27S 05°42' E 112°59'  
Track history (hours):
 
Tides and Currents Weather Stations Pressure Air Temp Water Temp Dewpoint Dewpoint Depression Visibility Wind Speed Wind Dir Waves Ship Positions

Genius

Last reported at 2015-Sep-04 16:33 UTC. Time now 2015-Sep-05 16:20 UTC.
Position S 16°27' E 117°34'.

Length 288 m; draft 17.7 m.

Type: Cargo ship. MMSI: 235074615.

Date/timePositionNaut miles runAvg speedWind from/ knotsBaromVisibWave heightAir tempDewpointWater temp
2015-Sep-04 16:33S 16°27' E 117°34'1410.5
2015-Sep-04 15:12S 16°40' E 117°38'810.8
2015-Sep-04 14:27S 16°48' E 117°40'4710.7
2015-Sep-04 10:05S 17°34' E 117°52'14810.9
2015-Sep-03 20:32S 19°58' E 118°27'23 2.5
2015-Sep-03 11:12S 20°20' E 118°35'0 0.1
2015-Sep-03 10:12S 20°20' E 118°35'0 0.0
2015-Sep-03 09:06S 20°20' E 118°35'0 0.0
2015-Sep-03 08:24S 20°20' E 118°35'0 0.0
2015-Sep-02 10:30S 20°20' E 118°35'0 0.0
2015-Sep-02 08:06S 20°20' E 118°35'0 0.0
2015-Sep-02 07:10S 20°20' E 118°35'0 0.2
2015-Sep-02 06:32S 20°20' E 118°35'37 4.6
2015-Sep-01 22:30S 19°44' E 118°25'8 8.3
2015-Sep-01 21:32S 19°36' E 118°23'9 8.6
2015-Sep-01 20:31S 19°28' E 118°21'8 8.5
2015-Sep-01 19:33S 19°20' E 118°19'18 9.0
2015-Sep-01 17:30S 19°02' E 118°14'21 9.7
2015-Sep-01 15:21S 18°41' E 118°10'2010.4
2015-Sep-01 13:26S 18°22' E 118°04'  
2015-Aug-29 13:12S 07°47' E 115°25'6 8.1
2015-Aug-29 12:31S 07°43' E 115°21'186 8.8
2015-Aug-28 15:27S 05°42' E 112°59'  

Dump ship's entire track history